NOZ3EG LGKF-ENGM
Flight info
| Callsign | NOZ3EG |
|---|---|
| Flight time | N/A |
| Altitude | 34000 |
| Route | ROTSA UN731 YNN UL604 DIMIS DCT ALELU DCT TONDO DCT VALPI DCT BINPO DCT POKEN DCT SABAK DCT LUNIP |
| Aircraft | B738/M-SDE2E3FGHIRWXY/LB1 |
Departure
| Time | N/A |
|---|---|
| Airport | Kefallinia Airport (LGKF) |
Arrival
| Time | 2026-05-06 18:48 |
|---|---|
| Airport | Oslo-Gardermoen International Airport (ENGM) |
| Time | Latitude | Longitude | Altitude | Speed | Heading |
|---|---|---|---|---|---|
| 2026-05-06 15:26 | 38.65543 | 20.60106 | 18079 ft | 381 kts | 8° |
| 2026-05-06 15:26 | 38.68160 | 20.60738 | 18570 ft | 385 kts | 8° |
| 2026-05-06 15:26 | 38.70808 | 20.61377 | 19043 ft | 389 kts | 8° |
| 2026-05-06 15:26 | 38.73477 | 20.62023 | 19565 ft | 392 kts | 8° |
| 2026-05-06 15:27 | 38.76165 | 20.62674 | 20078 ft | 394 kts | 8° |
| 2026-05-06 15:27 | 38.78872 | 20.63329 | 20566 ft | 398 kts | 8° |
| 2026-05-06 15:27 | 38.81601 | 20.63991 | 21059 ft | 400 kts | 8° |
| 2026-05-06 15:27 | 38.84348 | 20.64657 | 21536 ft | 403 kts | 8° |
| 2026-05-06 15:28 | 38.87116 | 20.65329 | 21992 ft | 406 kts | 8° |
| 2026-05-06 15:28 | 38.89908 | 20.65964 | 22439 ft | 409 kts | 7° |
| 2026-05-06 15:28 | 38.92727 | 20.66536 | 22882 ft | 411 kts | 6° |
| 2026-05-06 15:28 | 38.95569 | 20.67087 | 23313 ft | 414 kts | 6° |
| 2026-05-06 15:29 | 38.98427 | 20.67638 | 23737 ft | 417 kts | 6° |
| 2026-05-06 15:29 | 39.01304 | 20.68198 | 24086 ft | 420 kts | 6° |
| 2026-05-06 15:29 | 39.04200 | 20.68768 | 24459 ft | 422 kts | 6° |
| 2026-05-06 15:29 | 39.07109 | 20.69347 | 24831 ft | 424 kts | 6° |
| 2026-05-06 15:30 | 39.10029 | 20.69931 | 25190 ft | 426 kts | 6° |
| 2026-05-06 15:30 | 39.12967 | 20.70522 | 25535 ft | 429 kts | 6° |
| 2026-05-06 15:30 | 39.15925 | 20.71117 | 25863 ft | 431 kts | 6° |
| 2026-05-06 15:30 | 39.18898 | 20.71717 | 26198 ft | 433 kts | 6° |
| 2026-05-06 15:31 | 39.21885 | 20.72319 | 26528 ft | 436 kts | 6° |
| 2026-05-06 15:31 | 39.24884 | 20.72925 | 26841 ft | 439 kts | 5° |
| 2026-05-06 15:31 | 39.27920 | 20.73538 | 27028 ft | 444 kts | 5° |
| 2026-05-06 15:32 | 39.34083 | 20.74742 | 27534 ft | 450 kts | 5° |
| 2026-05-06 15:32 | 39.37180 | 20.75375 | 27918 ft | 450 kts | 5° |
| 2026-05-06 15:32 | 39.40282 | 20.76020 | 28205 ft | 453 kts | 5° |
| 2026-05-06 15:32 | 39.43401 | 20.76667 | 28469 ft | 455 kts | 5° |
| 2026-05-06 15:33 | 39.46525 | 20.77309 | 28870 ft | 454 kts | 5° |
| 2026-05-06 15:33 | 39.49635 | 20.77946 | 29424 ft | 450 kts | 5° |
| 2026-05-06 15:33 | 39.52727 | 20.78351 | 29881 ft | 444 kts | 356° |
| 2026-05-06 15:33 | 39.55777 | 20.78023 | 30220 ft | 438 kts | 346° |
| 2026-05-06 15:34 | 39.58716 | 20.77075 | 30514 ft | 435 kts | 340° |
| 2026-05-06 15:34 | 39.61620 | 20.75989 | 30848 ft | 433 kts | 340° |
| 2026-05-06 15:34 | 39.64513 | 20.74913 | 31202 ft | 432 kts | 340° |
| 2026-05-06 15:34 | 39.67363 | 20.73866 | 31517 ft | 432 kts | 340° |
| 2026-05-06 15:35 | 39.70269 | 20.72813 | 31654 ft | 435 kts | 340° |
| 2026-05-06 15:35 | 39.73192 | 20.71814 | 32055 ft | 432 kts | 342° |
| 2026-05-06 15:35 | 39.76103 | 20.70920 | 32526 ft | 428 kts | 343° |
| 2026-05-06 15:35 | 39.79002 | 20.70067 | 32866 ft | 427 kts | 343° |
| 2026-05-06 15:36 | 39.81899 | 20.69222 | 33093 ft | 428 kts | 343° |
| 2026-05-06 15:36 | 39.84801 | 20.68377 | 33363 ft | 426 kts | 343° |
| 2026-05-06 15:36 | 39.87695 | 20.67525 | 33615 ft | 427 kts | 342° |
| 2026-05-06 15:36 | 39.90588 | 20.66652 | 33888 ft | 426 kts | 342° |
| 2026-05-06 15:37 | 39.93473 | 20.65775 | 34094 ft | 427 kts | 342° |
| 2026-05-06 15:37 | 39.96374 | 20.64889 | 34075 ft | 429 kts | 342° |
| 2026-05-06 15:37 | 40.02175 | 20.63113 | 34062 ft | 426 kts | 342° |
| 2026-05-06 15:38 | 40.07915 | 20.61358 | 34061 ft | 422 kts | 342° |
| 2026-05-06 15:38 | 40.13630 | 20.59608 | 34077 ft | 421 kts | 342° |
| 2026-05-06 15:39 | 40.19327 | 20.57858 | 34064 ft | 420 kts | 342° |
| 2026-05-06 15:39 | 40.25017 | 20.56108 | 34066 ft | 420 kts | 342° |
| 2026-05-06 15:40 | 40.30709 | 20.54355 | 34054 ft | 420 kts | 342° |
| 2026-05-06 15:40 | 40.36416 | 20.52593 | 34066 ft | 423 kts | 342° |
| 2026-05-06 15:41 | 40.42146 | 20.50822 | 34069 ft | 423 kts | 342° |
| 2026-05-06 15:41 | 40.47890 | 20.49038 | 34062 ft | 425 kts | 342° |
| 2026-05-06 15:42 | 40.53666 | 20.47250 | 34059 ft | 427 kts | 342° |
| 2026-05-06 15:42 | 40.59457 | 20.45455 | 34051 ft | 428 kts | 343° |
| 2026-05-06 15:43 | 40.65213 | 20.43665 | 34059 ft | 428 kts | 343° |
| 2026-05-06 15:43 | 40.71016 | 20.41857 | 34064 ft | 429 kts | 343° |
| 2026-05-06 15:44 | 40.76826 | 20.40043 | 34070 ft | 429 kts | 343° |
| 2026-05-06 15:44 | 40.82643 | 20.38223 | 34069 ft | 430 kts | 342° |
| 2026-05-06 15:45 | 40.88466 | 20.36398 | 34069 ft | 430 kts | 343° |
| 2026-05-06 15:45 | 40.94278 | 20.34573 | 34066 ft | 429 kts | 342° |
| 2026-05-06 15:46 | 41.00080 | 20.32750 | 34068 ft | 428 kts | 342° |
| 2026-05-06 15:46 | 41.05865 | 20.30927 | 34074 ft | 427 kts | 342° |
| 2026-05-06 15:47 | 41.11631 | 20.29106 | 34076 ft | 425 kts | 342° |
| 2026-05-06 15:47 | 41.17388 | 20.27286 | 34070 ft | 425 kts | 342° |
| 2026-05-06 15:48 | 41.23131 | 20.25466 | 34076 ft | 424 kts | 342° |
| 2026-05-06 15:48 | 41.28866 | 20.23645 | 34072 ft | 424 kts | 342° |
| 2026-05-06 15:49 | 41.34600 | 20.21822 | 34074 ft | 424 kts | 342° |
| 2026-05-06 15:49 | 41.40341 | 20.19993 | 34073 ft | 425 kts | 342° |
| 2026-05-06 15:50 | 41.45122 | 20.18468 | 34084 ft | 425 kts | 342° |
| 2026-05-06 15:50 | 41.51865 | 20.16312 | 34080 ft | 427 kts | 342° |
| 2026-05-06 15:51 | 41.57651 | 20.14458 | 34084 ft | 429 kts | 342° |
| 2026-05-06 15:51 | 41.62475 | 20.12912 | 34079 ft | 429 kts | 341° |
| 2026-05-06 15:52 | 41.68284 | 20.11045 | 34072 ft | 430 kts | 341° |
| 2026-05-06 15:52 | 41.74091 | 20.09175 | 34071 ft | 429 kts | 341° |
| 2026-05-06 15:53 | 41.79899 | 20.07303 | 34068 ft | 429 kts | 341° |
| 2026-05-06 15:53 | 41.85698 | 20.05428 | 34100 ft | 428 kts | 341° |
| 2026-05-06 15:54 | 41.91493 | 20.03551 | 34075 ft | 429 kts | 341° |
| 2026-05-06 15:54 | 41.97294 | 20.01670 | 34075 ft | 429 kts | 341° |
| 2026-05-06 15:55 | 42.03096 | 19.99784 | 34074 ft | 429 kts | 341° |
| 2026-05-06 15:55 | 42.08882 | 19.97900 | 34084 ft | 427 kts | 341° |
| 2026-05-06 15:56 | 42.14655 | 19.96018 | 34082 ft | 427 kts | 341° |
| 2026-05-06 15:56 | 42.20448 | 19.94124 | 34075 ft | 429 kts | 341° |
| 2026-05-06 15:57 | 42.26252 | 19.92221 | 34080 ft | 430 kts | 341° |
| 2026-05-06 15:57 | 42.32021 | 19.90330 | 34104 ft | 429 kts | 341° |
| 2026-05-06 15:58 | 42.37827 | 19.88426 | 34110 ft | 429 kts | 341° |
| 2026-05-06 15:58 | 42.43641 | 19.86505 | 34081 ft | 431 kts | 341° |
| 2026-05-06 15:59 | 42.49513 | 19.84747 | 34088 ft | 436 kts | 348° |
| 2026-05-06 15:59 | 42.55586 | 19.83917 | 34086 ft | 440 kts | 351° |
| 2026-05-06 16:00 | 42.61690 | 19.83222 | 34078 ft | 440 kts | 350° |
| 2026-05-06 16:00 | 42.67779 | 19.82486 | 34059 ft | 438 kts | 350° |
| 2026-05-06 16:01 | 42.73831 | 19.81709 | 34069 ft | 436 kts | 350° |
| 2026-05-06 16:01 | 42.79870 | 19.80910 | 34056 ft | 435 kts | 350° |
| 2026-05-06 16:02 | 42.85895 | 19.80111 | 34057 ft | 435 kts | 350° |
| 2026-05-06 16:02 | 42.91912 | 19.79313 | 34046 ft | 435 kts | 350° |
| 2026-05-06 16:03 | 42.97931 | 19.78514 | 34036 ft | 434 kts | 350° |
| 2026-05-06 16:03 | 43.03946 | 19.77715 | 34025 ft | 434 kts | 350° |
| 2026-05-06 16:04 | 43.09923 | 19.76919 | 34017 ft | 434 kts | 350° |
| 2026-05-06 16:04 | 43.15928 | 19.76119 | 34019 ft | 433 kts | 350° |
| 2026-05-06 16:05 | 43.21922 | 19.75314 | 34018 ft | 433 kts | 350° |
| 2026-05-06 16:05 | 43.27932 | 19.74510 | 34018 ft | 435 kts | 350° |
| 2026-05-06 16:06 | 43.33974 | 19.73700 | 34012 ft | 437 kts | 350° |
| 2026-05-06 16:06 | 43.40041 | 19.72884 | 33996 ft | 439 kts | 350° |
| 2026-05-06 16:07 | 43.46122 | 19.72065 | 34007 ft | 439 kts | 350° |
| 2026-05-06 16:07 | 43.52211 | 19.71244 | 33985 ft | 440 kts | 351° |
| 2026-05-06 16:08 | 43.58309 | 19.70419 | 33982 ft | 440 kts | 351° |
| 2026-05-06 16:08 | 43.64406 | 19.69593 | 33972 ft | 440 kts | 351° |
| 2026-05-06 16:09 | 43.70500 | 19.68765 | 33965 ft | 440 kts | 351° |
| 2026-05-06 16:09 | 43.76597 | 19.67935 | 33959 ft | 440 kts | 351° |
| 2026-05-06 16:10 | 43.82691 | 19.67104 | 33957 ft | 440 kts | 351° |
| 2026-05-06 16:10 | 43.88776 | 19.66273 | 33958 ft | 440 kts | 351° |
| 2026-05-06 16:11 | 43.94867 | 19.65438 | 33945 ft | 440 kts | 351° |
| 2026-05-06 16:11 | 44.00951 | 19.64603 | 33938 ft | 439 kts | 351° |
| 2026-05-06 16:12 | 44.07032 | 19.63767 | 33950 ft | 439 kts | 351° |
| 2026-05-06 16:12 | 44.13068 | 19.62935 | 33936 ft | 439 kts | 350° |
| 2026-05-06 16:13 | 44.19156 | 19.62094 | 33932 ft | 440 kts | 350° |
| 2026-05-06 16:13 | 44.25250 | 19.61250 | 33929 ft | 441 kts | 350° |
| 2026-05-06 16:14 | 44.31359 | 19.60404 | 33921 ft | 442 kts | 351° |
| 2026-05-06 16:14 | 44.37477 | 19.59554 | 33918 ft | 442 kts | 351° |
| 2026-05-06 16:15 | 44.43597 | 19.58703 | 33921 ft | 442 kts | 351° |
| 2026-05-06 16:15 | 44.49718 | 19.57848 | 33913 ft | 442 kts | 350° |
| 2026-05-06 16:16 | 44.55835 | 19.56993 | 33903 ft | 441 kts | 350° |
| 2026-05-06 16:16 | 44.61946 | 19.56137 | 33900 ft | 441 kts | 350° |
| 2026-05-06 16:17 | 44.68056 | 19.55279 | 33924 ft | 441 kts | 350° |
| 2026-05-06 16:17 | 44.74167 | 19.54419 | 33906 ft | 441 kts | 350° |
| 2026-05-06 16:18 | 44.80279 | 19.53557 | 33904 ft | 441 kts | 350° |
| 2026-05-06 16:18 | 44.86389 | 19.52693 | 33903 ft | 441 kts | 350° |
| 2026-05-06 16:19 | 44.92495 | 19.51829 | 33907 ft | 441 kts | 350° |
| 2026-05-06 16:19 | 44.98599 | 19.50963 | 33902 ft | 441 kts | 350° |
| 2026-05-06 16:20 | 45.04692 | 19.50096 | 33911 ft | 440 kts | 350° |
| 2026-05-06 16:20 | 45.10785 | 19.49227 | 33907 ft | 440 kts | 350° |
| 2026-05-06 16:21 | 45.16881 | 19.48356 | 33911 ft | 440 kts | 350° |
| 2026-05-06 16:21 | 45.22982 | 19.47483 | 33905 ft | 441 kts | 350° |
| 2026-05-06 16:22 | 45.29088 | 19.46607 | 33918 ft | 441 kts | 349° |
| 2026-05-06 16:22 | 45.35193 | 19.45730 | 33899 ft | 441 kts | 349° |
| 2026-05-06 16:23 | 45.41256 | 19.44856 | 33905 ft | 441 kts | 349° |
| 2026-05-06 16:23 | 45.47351 | 19.43976 | 33906 ft | 440 kts | 349° |
| 2026-05-06 16:24 | 45.53439 | 19.43096 | 33903 ft | 439 kts | 349° |
| 2026-05-06 16:24 | 45.59520 | 19.42214 | 33908 ft | 438 kts | 349° |
| 2026-05-06 16:25 | 45.65581 | 19.41333 | 33902 ft | 437 kts | 349° |
| 2026-05-06 16:25 | 45.71630 | 19.40452 | 33908 ft | 436 kts | 349° |
| 2026-05-06 16:26 | 45.77663 | 19.39571 | 33898 ft | 435 kts | 349° |
| 2026-05-06 16:26 | 45.83686 | 19.38690 | 33903 ft | 434 kts | 349° |
| 2026-05-06 16:27 | 45.89694 | 19.37809 | 33903 ft | 434 kts | 349° |
| 2026-05-06 16:27 | 45.95693 | 19.36928 | 33912 ft | 433 kts | 349° |
| 2026-05-06 16:28 | 46.01684 | 19.36045 | 33918 ft | 433 kts | 349° |
| 2026-05-06 16:28 | 46.07567 | 19.34541 | 33914 ft | 426 kts | 338° |
| 2026-05-06 16:29 | 46.13216 | 19.31972 | 33909 ft | 426 kts | 337° |
| 2026-05-06 16:29 | 46.18870 | 19.29338 | 33908 ft | 428 kts | 337° |
| 2026-05-06 16:30 | 46.23633 | 19.27160 | 33903 ft | 429 kts | 337° |
| 2026-05-06 16:30 | 46.30267 | 19.24166 | 33902 ft | 430 kts | 338° |
| 2026-05-06 16:31 | 46.35985 | 19.21595 | 33895 ft | 431 kts | 338° |
| 2026-05-06 16:31 | 46.41709 | 19.19016 | 33901 ft | 431 kts | 337° |
| 2026-05-06 16:32 | 46.47438 | 19.16429 | 33899 ft | 431 kts | 337° |
| 2026-05-06 16:32 | 46.53171 | 19.13833 | 33897 ft | 432 kts | 337° |
| 2026-05-06 16:33 | 46.58903 | 19.11232 | 33897 ft | 432 kts | 337° |
| 2026-05-06 16:34 | 46.67497 | 19.07322 | 33896 ft | 431 kts | 337° |
| 2026-05-06 16:34 | 46.73222 | 19.04709 | 33894 ft | 431 kts | 337° |
| 2026-05-06 16:35 | 46.78938 | 19.02095 | 33892 ft | 431 kts | 337° |
| 2026-05-06 16:35 | 46.84653 | 18.99475 | 33905 ft | 430 kts | 337° |
| 2026-05-06 16:36 | 46.90365 | 18.96851 | 33894 ft | 430 kts | 337° |
| 2026-05-06 16:36 | 46.96075 | 18.94221 | 33890 ft | 430 kts | 337° |
| 2026-05-06 16:37 | 47.01785 | 18.91587 | 33890 ft | 430 kts | 337° |
| 2026-05-06 16:37 | 47.07494 | 18.88946 | 33900 ft | 430 kts | 337° |
| 2026-05-06 16:38 | 47.13203 | 18.86300 | 33884 ft | 430 kts | 337° |
| 2026-05-06 16:38 | 47.18915 | 18.83646 | 33881 ft | 430 kts | 336° |
| 2026-05-06 16:39 | 47.23657 | 18.81439 | 33885 ft | 430 kts | 336° |
| 2026-05-06 16:39 | 47.29365 | 18.78776 | 33876 ft | 431 kts | 336° |
| 2026-05-06 16:40 | 47.35078 | 18.76104 | 33884 ft | 431 kts | 336° |
| 2026-05-06 16:40 | 47.40790 | 18.73427 | 33878 ft | 431 kts | 336° |
| 2026-05-06 16:41 | 47.46506 | 18.70742 | 33876 ft | 431 kts | 336° |
| 2026-05-06 16:41 | 47.52224 | 18.68050 | 33895 ft | 431 kts | 336° |
| 2026-05-06 16:42 | 47.57945 | 18.65350 | 33879 ft | 433 kts | 336° |
| 2026-05-06 16:42 | 47.63691 | 18.62631 | 33880 ft | 434 kts | 336° |
| 2026-05-06 16:43 | 47.69459 | 18.59896 | 33873 ft | 436 kts | 336° |
| 2026-05-06 16:43 | 47.75250 | 18.57145 | 33866 ft | 438 kts | 336° |
| 2026-05-06 16:44 | 47.81032 | 18.54391 | 33874 ft | 439 kts | 336° |
| 2026-05-06 16:44 | 47.86857 | 18.51611 | 33859 ft | 440 kts | 336° |
| 2026-05-06 16:45 | 47.92359 | 18.48979 | 33867 ft | 440 kts | 336° |
| 2026-05-06 16:45 | 47.98121 | 18.46217 | 33852 ft | 440 kts | 336° |
| 2026-05-06 16:46 | 48.03957 | 18.43411 | 33854 ft | 440 kts | 336° |
| 2026-05-06 16:46 | 48.09785 | 18.40603 | 33846 ft | 440 kts | 336° |
| 2026-05-06 16:47 | 48.15601 | 18.37794 | 33841 ft | 439 kts | 336° |
| 2026-05-06 16:47 | 48.21404 | 18.34985 | 33837 ft | 437 kts | 336° |
| 2026-05-06 16:48 | 48.27186 | 18.32179 | 33856 ft | 436 kts | 336° |
| 2026-05-06 16:48 | 48.32957 | 18.29372 | 33836 ft | 436 kts | 335° |
| 2026-05-06 16:49 | 48.38717 | 18.26562 | 33834 ft | 435 kts | 335° |
| 2026-05-06 16:49 | 48.44471 | 18.23749 | 33846 ft | 435 kts | 335° |
| 2026-05-06 16:50 | 48.50199 | 18.20942 | 33830 ft | 436 kts | 335° |
| 2026-05-06 16:50 | 48.56003 | 18.18091 | 33818 ft | 436 kts | 335° |
| 2026-05-06 16:51 | 48.61727 | 18.15274 | 33812 ft | 436 kts | 335° |
| 2026-05-06 16:51 | 48.67490 | 18.12430 | 33807 ft | 436 kts | 335° |
| 2026-05-06 16:52 | 48.73256 | 18.09576 | 33821 ft | 436 kts | 335° |
| 2026-05-06 16:52 | 48.79026 | 18.06715 | 33804 ft | 436 kts | 335° |
| 2026-05-06 16:53 | 48.84793 | 18.03849 | 33825 ft | 436 kts | 334° |
| 2026-05-06 16:53 | 48.90559 | 18.00975 | 33806 ft | 436 kts | 334° |
| 2026-05-06 16:54 | 48.96326 | 17.98093 | 33804 ft | 436 kts | 334° |
| 2026-05-06 16:54 | 49.02091 | 17.95207 | 33816 ft | 436 kts | 334° |
| 2026-05-06 16:55 | 49.07883 | 17.92392 | 33806 ft | 437 kts | 335° |
| 2026-05-06 16:55 | 49.13698 | 17.89640 | 33796 ft | 438 kts | 335° |
| 2026-05-06 16:56 | 49.19514 | 17.86878 | 33796 ft | 438 kts | 335° |
| 2026-05-06 16:56 | 49.25333 | 17.84095 | 33789 ft | 438 kts | 335° |
| 2026-05-06 16:57 | 49.31148 | 17.81301 | 33798 ft | 438 kts | 334° |
| 2026-05-06 16:57 | 49.36969 | 17.78495 | 33795 ft | 439 kts | 334° |
| 2026-05-06 16:58 | 49.42794 | 17.75680 | 33787 ft | 439 kts | 334° |
| 2026-05-06 16:58 | 49.48622 | 17.72858 | 33792 ft | 439 kts | 334° |
| 2026-05-06 16:59 | 49.54449 | 17.70029 | 33788 ft | 439 kts | 334° |
| 2026-05-06 16:59 | 49.60269 | 17.67197 | 33778 ft | 439 kts | 334° |
| 2026-05-06 17:00 | 49.66080 | 17.64361 | 33792 ft | 437 kts | 334° |
| 2026-05-06 17:00 | 49.71876 | 17.61526 | 33792 ft | 437 kts | 334° |
| 2026-05-06 17:01 | 49.77682 | 17.58679 | 33784 ft | 438 kts | 334° |
| 2026-05-06 17:01 | 49.83486 | 17.55826 | 33785 ft | 438 kts | 334° |
| 2026-05-06 17:02 | 49.89294 | 17.52963 | 33780 ft | 438 kts | 334° |
| 2026-05-06 17:02 | 49.95101 | 17.50092 | 33781 ft | 439 kts | 334° |
| 2026-05-06 17:03 | 50.00922 | 17.47208 | 33794 ft | 440 kts | 334° |
| 2026-05-06 17:03 | 50.06753 | 17.44313 | 33788 ft | 440 kts | 333° |
| 2026-05-06 17:04 | 50.12589 | 17.41408 | 33793 ft | 440 kts | 333° |
| 2026-05-06 17:04 | 50.18422 | 17.38498 | 33788 ft | 440 kts | 333° |
| 2026-05-06 17:05 | 50.24249 | 17.35582 | 33772 ft | 440 kts | 333° |
| 2026-05-06 17:05 | 50.30076 | 17.32657 | 33784 ft | 440 kts | 334° |
| 2026-05-06 17:06 | 50.35913 | 17.29720 | 33787 ft | 441 kts | 334° |
| 2026-05-06 17:06 | 50.41766 | 17.26767 | 33777 ft | 443 kts | 334° |
| 2026-05-06 17:07 | 50.47596 | 17.23819 | 33773 ft | 444 kts | 334° |
| 2026-05-06 17:07 | 50.53520 | 17.20815 | 33785 ft | 445 kts | 334° |
| 2026-05-06 17:08 | 50.59377 | 17.17838 | 33779 ft | 446 kts | 334° |
| 2026-05-06 17:08 | 50.65287 | 17.14827 | 33765 ft | 446 kts | 334° |
| 2026-05-06 17:09 | 50.71191 | 17.11811 | 33760 ft | 446 kts | 334° |
| 2026-05-06 17:09 | 50.77091 | 17.08788 | 33801 ft | 445 kts | 334° |
| 2026-05-06 17:10 | 50.82993 | 17.05756 | 33773 ft | 446 kts | 335° |
| 2026-05-06 17:10 | 50.88890 | 17.02719 | 33758 ft | 445 kts | 335° |
| 2026-05-06 17:11 | 50.94780 | 16.99677 | 33754 ft | 445 kts | 335° |
| 2026-05-06 17:11 | 51.00662 | 16.96631 | 33751 ft | 444 kts | 335° |
| 2026-05-06 17:12 | 51.06536 | 16.93581 | 33753 ft | 444 kts | 335° |
| 2026-05-06 17:12 | 51.12407 | 16.90524 | 33749 ft | 444 kts | 335° |
| 2026-05-06 17:13 | 51.18275 | 16.87461 | 33747 ft | 444 kts | 335° |
| 2026-05-06 17:13 | 51.24154 | 16.84382 | 33778 ft | 445 kts | 334° |
| 2026-05-06 17:14 | 51.30046 | 16.81289 | 33779 ft | 447 kts | 334° |
| 2026-05-06 17:14 | 51.35962 | 16.78175 | 33766 ft | 449 kts | 335° |
| 2026-05-06 17:15 | 51.41894 | 16.75045 | 33774 ft | 450 kts | 335° |
| 2026-05-06 17:15 | 51.47845 | 16.71897 | 33772 ft | 450 kts | 335° |
| 2026-05-06 17:16 | 51.53798 | 16.68738 | 33770 ft | 451 kts | 335° |
| 2026-05-06 17:16 | 51.59760 | 16.65566 | 33787 ft | 452 kts | 335° |
| 2026-05-06 17:17 | 51.65727 | 16.62382 | 33789 ft | 453 kts | 335° |
| 2026-05-06 17:17 | 51.71659 | 16.59034 | 33782 ft | 451 kts | 333° |
| 2026-05-06 17:18 | 51.77475 | 16.55469 | 33779 ft | 450 kts | 332° |
| 2026-05-06 17:18 | 51.83315 | 16.51865 | 33788 ft | 449 kts | 332° |
| 2026-05-06 17:19 | 51.89165 | 16.48283 | 33794 ft | 449 kts | 333° |
| 2026-05-06 17:19 | 51.95014 | 16.44712 | 33792 ft | 449 kts | 333° |
| 2026-05-06 17:20 | 52.00859 | 16.41140 | 33800 ft | 449 kts | 333° |
| 2026-05-06 17:20 | 52.06699 | 16.37562 | 33817 ft | 449 kts | 333° |
| 2026-05-06 17:21 | 52.12543 | 16.33968 | 33823 ft | 449 kts | 333° |
| 2026-05-06 17:21 | 52.18379 | 16.30370 | 33811 ft | 448 kts | 333° |
| 2026-05-06 17:22 | 52.24210 | 16.26766 | 33806 ft | 448 kts | 333° |
| 2026-05-06 17:22 | 52.30028 | 16.23159 | 33810 ft | 447 kts | 333° |
| 2026-05-06 17:23 | 52.35838 | 16.19546 | 33811 ft | 447 kts | 333° |
| 2026-05-06 17:23 | 52.41646 | 16.15924 | 33811 ft | 446 kts | 333° |
| 2026-05-06 17:24 | 52.47448 | 16.12297 | 33840 ft | 446 kts | 333° |
| 2026-05-06 17:24 | 52.53209 | 16.08684 | 33822 ft | 446 kts | 333° |
| 2026-05-06 17:25 | 52.59013 | 16.05033 | 33818 ft | 447 kts | 333° |
| 2026-05-06 17:25 | 52.64812 | 16.01377 | 33821 ft | 446 kts | 333° |
| 2026-05-06 17:26 | 52.70617 | 15.97706 | 33825 ft | 447 kts | 332° |
| 2026-05-06 17:26 | 52.76421 | 15.94025 | 33816 ft | 447 kts | 332° |
| 2026-05-06 17:27 | 52.81244 | 15.90957 | 33820 ft | 447 kts | 332° |
| 2026-05-06 17:27 | 52.87046 | 15.87258 | 33823 ft | 447 kts | 332° |
| 2026-05-06 17:28 | 52.92851 | 15.83547 | 33822 ft | 448 kts | 332° |
| 2026-05-06 17:28 | 52.98666 | 15.79817 | 33833 ft | 448 kts | 332° |
| 2026-05-06 17:29 | 53.04485 | 15.76075 | 33832 ft | 449 kts | 332° |
| 2026-05-06 17:29 | 53.10312 | 15.72317 | 33830 ft | 449 kts | 332° |
| 2026-05-06 17:30 | 53.16140 | 15.68547 | 33833 ft | 450 kts | 332° |
| 2026-05-06 17:30 | 53.21972 | 15.64764 | 33861 ft | 450 kts | 332° |
| 2026-05-06 17:31 | 53.27810 | 15.60965 | 33842 ft | 450 kts | 332° |
| 2026-05-06 17:31 | 53.33644 | 15.57158 | 33859 ft | 450 kts | 333° |
| 2026-05-06 17:32 | 53.39476 | 15.53341 | 33840 ft | 450 kts | 333° |
| 2026-05-06 17:32 | 53.45300 | 15.49520 | 33846 ft | 449 kts | 333° |
| 2026-05-06 17:33 | 53.51108 | 15.45697 | 33868 ft | 448 kts | 333° |
| 2026-05-06 17:33 | 53.56868 | 15.41892 | 33857 ft | 448 kts | 333° |
| 2026-05-06 17:34 | 53.62661 | 15.38056 | 33855 ft | 447 kts | 333° |
| 2026-05-06 17:34 | 53.68443 | 15.34216 | 33854 ft | 447 kts | 333° |
| 2026-05-06 17:35 | 53.74220 | 15.30367 | 33855 ft | 446 kts | 333° |
| 2026-05-06 17:35 | 53.79985 | 15.26515 | 33875 ft | 445 kts | 333° |
| 2026-05-06 17:36 | 53.88625 | 15.20721 | 33868 ft | 445 kts | 333° |
| 2026-05-06 17:36 | 53.94379 | 15.16847 | 33872 ft | 445 kts | 333° |
| 2026-05-06 17:37 | 54.00132 | 15.12963 | 33871 ft | 445 kts | 333° |
| 2026-05-06 17:37 | 54.05883 | 15.09069 | 33894 ft | 445 kts | 333° |
| 2026-05-06 17:38 | 54.11640 | 15.05158 | 33890 ft | 446 kts | 333° |
| 2026-05-06 17:38 | 54.17399 | 15.01235 | 33888 ft | 446 kts | 333° |
| 2026-05-06 17:39 | 54.23154 | 14.97303 | 33903 ft | 446 kts | 333° |
| 2026-05-06 17:39 | 54.28917 | 14.93354 | 33895 ft | 446 kts | 333° |
| 2026-05-06 17:40 | 54.34635 | 14.89423 | 33908 ft | 446 kts | 333° |
| 2026-05-06 17:40 | 54.40390 | 14.85455 | 33905 ft | 446 kts | 333° |
| 2026-05-06 17:41 | 54.46139 | 14.81479 | 33909 ft | 445 kts | 333° |
| 2026-05-06 17:41 | 54.51883 | 14.77495 | 33908 ft | 445 kts | 333° |
| 2026-05-06 17:42 | 54.57614 | 14.73508 | 33917 ft | 444 kts | 333° |
| 2026-05-06 17:42 | 54.63338 | 14.69512 | 33936 ft | 444 kts | 334° |
| 2026-05-06 17:43 | 54.69062 | 14.65505 | 33932 ft | 444 kts | 334° |
| 2026-05-06 17:43 | 54.74776 | 14.61492 | 33926 ft | 443 kts | 334° |
| 2026-05-06 17:44 | 54.80485 | 14.57472 | 33935 ft | 443 kts | 334° |
| 2026-05-06 17:44 | 54.86141 | 14.53296 | 33935 ft | 441 kts | 332° |
| 2026-05-06 17:45 | 54.91705 | 14.48837 | 33941 ft | 440 kts | 331° |
| 2026-05-06 17:45 | 54.97262 | 14.44349 | 33950 ft | 441 kts | 331° |
| 2026-05-06 17:46 | 55.02834 | 14.39877 | 33942 ft | 441 kts | 332° |
| 2026-05-06 17:46 | 55.08413 | 14.35412 | 33942 ft | 441 kts | 332° |
| 2026-05-06 17:47 | 55.13985 | 14.30946 | 33942 ft | 440 kts | 332° |
| 2026-05-06 17:47 | 55.19551 | 14.26473 | 33947 ft | 440 kts | 332° |
| 2026-05-06 17:48 | 55.25107 | 14.21992 | 33950 ft | 440 kts | 332° |
| 2026-05-06 17:48 | 55.30665 | 14.17494 | 33954 ft | 440 kts | 332° |
| 2026-05-06 17:49 | 55.36220 | 14.12985 | 33954 ft | 440 kts | 332° |
| 2026-05-06 17:49 | 55.41779 | 14.08459 | 33960 ft | 440 kts | 332° |
| 2026-05-06 17:50 | 55.47344 | 14.03914 | 33957 ft | 441 kts | 332° |
| 2026-05-06 17:50 | 55.52916 | 13.99349 | 33973 ft | 442 kts | 331° |
| 2026-05-06 17:51 | 55.58503 | 13.94757 | 33969 ft | 443 kts | 331° |
| 2026-05-06 17:51 | 55.64102 | 13.90141 | 33974 ft | 444 kts | 331° |
| 2026-05-06 17:52 | 55.69712 | 13.85500 | 33977 ft | 446 kts | 331° |
| 2026-05-06 17:52 | 55.75294 | 13.80870 | 33979 ft | 446 kts | 331° |
| 2026-05-06 17:53 | 55.80922 | 13.76185 | 33976 ft | 447 kts | 331° |
| 2026-05-06 17:53 | 55.86554 | 13.71482 | 33975 ft | 447 kts | 331° |
| 2026-05-06 17:54 | 55.92184 | 13.66766 | 33988 ft | 447 kts | 330° |
| 2026-05-06 17:54 | 55.97809 | 13.62038 | 33968 ft | 446 kts | 330° |
| 2026-05-06 17:55 | 56.03418 | 13.57310 | 33970 ft | 445 kts | 330° |
| 2026-05-06 17:55 | 56.09012 | 13.52579 | 33970 ft | 444 kts | 330° |
| 2026-05-06 17:56 | 56.14593 | 13.47844 | 33968 ft | 444 kts | 330° |
| 2026-05-06 17:56 | 56.20165 | 13.43100 | 33969 ft | 443 kts | 330° |
| 2026-05-06 17:57 | 56.25729 | 13.38347 | 33966 ft | 443 kts | 330° |
| 2026-05-06 17:57 | 56.31287 | 13.33584 | 33971 ft | 442 kts | 330° |
| 2026-05-06 17:58 | 56.36837 | 13.28814 | 33975 ft | 442 kts | 329° |
| 2026-05-06 17:58 | 56.42355 | 13.24055 | 33976 ft | 442 kts | 329° |
| 2026-05-06 17:59 | 56.47937 | 13.19224 | 33966 ft | 441 kts | 328° |
| 2026-05-06 17:59 | 56.53433 | 13.14454 | 33954 ft | 441 kts | 328° |
| 2026-05-06 18:00 | 56.58952 | 13.09648 | 33944 ft | 439 kts | 328° |
| 2026-05-06 18:00 | 56.64457 | 13.04839 | 33944 ft | 439 kts | 328° |
| 2026-05-06 18:01 | 56.69951 | 13.00023 | 33939 ft | 438 kts | 328° |
| 2026-05-06 18:01 | 56.75441 | 12.95194 | 33938 ft | 438 kts | 328° |
| 2026-05-06 18:02 | 56.80926 | 12.90354 | 33951 ft | 437 kts | 328° |
| 2026-05-06 18:02 | 56.86399 | 12.85509 | 33939 ft | 437 kts | 328° |
| 2026-05-06 18:03 | 56.91857 | 12.80663 | 33944 ft | 436 kts | 328° |
| 2026-05-06 18:03 | 56.97310 | 12.75805 | 33936 ft | 435 kts | 328° |
| 2026-05-06 18:04 | 57.02749 | 12.70943 | 33938 ft | 435 kts | 328° |
| 2026-05-06 18:04 | 57.08188 | 12.66063 | 33940 ft | 435 kts | 327° |
| 2026-05-06 18:05 | 57.13637 | 12.61159 | 33934 ft | 436 kts | 327° |
| 2026-05-06 18:05 | 57.19083 | 12.56244 | 33924 ft | 436 kts | 327° |
| 2026-05-06 18:06 | 57.24542 | 12.51298 | 33939 ft | 438 kts | 327° |
| 2026-05-06 18:06 | 57.30007 | 12.46332 | 33940 ft | 438 kts | 327° |
| 2026-05-06 18:07 | 57.35486 | 12.41335 | 33937 ft | 439 kts | 327° |
| 2026-05-06 18:07 | 57.40965 | 12.36324 | 33935 ft | 439 kts | 327° |
| 2026-05-06 18:08 | 57.46446 | 12.31293 | 33933 ft | 439 kts | 327° |
| 2026-05-06 18:08 | 57.51914 | 12.26259 | 33940 ft | 438 kts | 327° |
| 2026-05-06 18:09 | 57.57371 | 12.21216 | 33935 ft | 438 kts | 327° |
| 2026-05-06 18:09 | 57.62863 | 12.16123 | 33964 ft | 437 kts | 326° |
| 2026-05-06 18:10 | 57.68262 | 12.11099 | 33944 ft | 437 kts | 326° |
| 2026-05-06 18:10 | 57.73684 | 12.06039 | 33934 ft | 435 kts | 326° |
| 2026-05-06 18:11 | 57.78172 | 12.01838 | 33940 ft | 433 kts | 326° |
| 2026-05-06 18:11 | 57.84411 | 11.95976 | 33935 ft | 430 kts | 326° |
| 2026-05-06 18:12 | 57.89744 | 11.90949 | 33929 ft | 424 kts | 326° |
| 2026-05-06 18:12 | 57.94907 | 11.86081 | 33582 ft | 408 kts | 324° |
| 2026-05-06 18:13 | 57.97439 | 11.83677 | 33082 ft | 407 kts | 324° |
| 2026-05-06 18:13 | 57.99970 | 11.81264 | 32560 ft | 407 kts | 324° |
| 2026-05-06 18:13 | 58.02494 | 11.78858 | 32133 ft | 405 kts | 324° |
| 2026-05-06 18:13 | 58.04999 | 11.76470 | 31752 ft | 402 kts | 324° |
| 2026-05-06 18:14 | 58.07481 | 11.74101 | 31366 ft | 399 kts | 324° |
| 2026-05-06 18:14 | 58.09945 | 11.71745 | 30973 ft | 396 kts | 324° |
| 2026-05-06 18:14 | 58.11573 | 11.70186 | 30718 ft | 395 kts | 323° |
| 2026-05-06 18:14 | 58.14832 | 11.67063 | 30226 ft | 392 kts | 323° |
| 2026-05-06 18:15 | 58.17303 | 11.64846 | 29838 ft | 395 kts | 330° |
| 2026-05-06 18:15 | 58.19969 | 11.63384 | 29418 ft | 404 kts | 340° |
| 2026-05-06 18:15 | 58.21798 | 11.62759 | 29171 ft | 402 kts | 341° |
| 2026-05-06 18:15 | 58.24550 | 11.61915 | 28764 ft | 400 kts | 342° |
| 2026-05-06 18:16 | 58.27291 | 11.61110 | 28359 ft | 397 kts | 342° |
| 2026-05-06 18:16 | 58.30004 | 11.60307 | 27980 ft | 393 kts | 342° |
| 2026-05-06 18:16 | 58.32697 | 11.59492 | 27594 ft | 390 kts | 342° |
| 2026-05-06 18:16 | 58.35360 | 11.58668 | 27226 ft | 387 kts | 342° |
| 2026-05-06 18:17 | 58.38005 | 11.57836 | 26865 ft | 383 kts | 342° |
| 2026-05-06 18:17 | 58.40625 | 11.57003 | 26498 ft | 380 kts | 342° |
| 2026-05-06 18:17 | 58.43227 | 11.56170 | 26135 ft | 377 kts | 342° |
| 2026-05-06 18:17 | 58.45804 | 11.55342 | 25779 ft | 374 kts | 342° |
| 2026-05-06 18:18 | 58.48363 | 11.54517 | 25447 ft | 371 kts | 342° |
| 2026-05-06 18:18 | 58.50886 | 11.53705 | 25220 ft | 366 kts | 342° |
| 2026-05-06 18:18 | 58.53388 | 11.52898 | 24995 ft | 362 kts | 342° |
| 2026-05-06 18:18 | 58.55860 | 11.52098 | 24748 ft | 359 kts | 342° |
| 2026-05-06 18:19 | 58.58323 | 11.51297 | 24503 ft | 360 kts | 342° |
| 2026-05-06 18:19 | 58.60802 | 11.50487 | 24282 ft | 363 kts | 342° |
| 2026-05-06 18:19 | 58.63301 | 11.49669 | 24048 ft | 364 kts | 342° |
| 2026-05-06 18:19 | 58.65786 | 11.48861 | 23808 ft | 361 kts | 342° |
| 2026-05-06 18:20 | 58.68256 | 11.48059 | 23569 ft | 359 kts | 342° |
| 2026-05-06 18:20 | 58.70714 | 11.47259 | 23289 ft | 357 kts | 342° |
| 2026-05-06 18:20 | 58.73154 | 11.46464 | 23006 ft | 355 kts | 342° |
| 2026-05-06 18:20 | 58.75577 | 11.45671 | 22718 ft | 353 kts | 342° |
| 2026-05-06 18:21 | 58.77991 | 11.44880 | 22453 ft | 351 kts | 343° |
| 2026-05-06 18:21 | 58.80390 | 11.44093 | 22187 ft | 349 kts | 343° |
| 2026-05-06 18:21 | 58.82774 | 11.43310 | 21957 ft | 347 kts | 342° |
| 2026-05-06 18:21 | 58.85148 | 11.42529 | 21698 ft | 345 kts | 342° |
| 2026-05-06 18:22 | 58.87508 | 11.41751 | 21425 ft | 343 kts | 342° |
| 2026-05-06 18:22 | 58.89855 | 11.40976 | 21159 ft | 341 kts | 343° |
| 2026-05-06 18:22 | 58.92188 | 11.40205 | 20893 ft | 340 kts | 343° |
| 2026-05-06 18:22 | 58.94514 | 11.39435 | 20631 ft | 338 kts | 343° |
| 2026-05-06 18:23 | 58.96826 | 11.38669 | 20369 ft | 336 kts | 343° |
| 2026-05-06 18:23 | 58.99124 | 11.37906 | 20113 ft | 334 kts | 343° |
| 2026-05-06 18:23 | 59.01412 | 11.37146 | 19861 ft | 333 kts | 343° |
| 2026-05-06 18:23 | 59.03690 | 11.36388 | 19603 ft | 331 kts | 343° |
| 2026-05-06 18:24 | 59.05955 | 11.35633 | 19370 ft | 330 kts | 343° |
| 2026-05-06 18:24 | 59.08211 | 11.34880 | 19110 ft | 328 kts | 343° |
| 2026-05-06 18:24 | 59.10455 | 11.34131 | 18865 ft | 326 kts | 344° |
| 2026-05-06 18:24 | 59.12684 | 11.33385 | 18646 ft | 324 kts | 343° |
| 2026-05-06 18:25 | 59.14903 | 11.32642 | 18403 ft | 323 kts | 343° |
| 2026-05-06 18:25 | 59.17115 | 11.31910 | 18147 ft | 322 kts | 346° |
| 2026-05-06 18:25 | 59.19380 | 11.32062 | 17832 ft | 335 kts | 9° |
| 2026-05-06 18:25 | 59.21605 | 11.33399 | 17588 ft | 335 kts | 13° |
| 2026-05-06 18:26 | 59.23813 | 11.34834 | 17301 ft | 334 kts | 13° |
| 2026-05-06 18:26 | 59.26014 | 11.36269 | 17057 ft | 333 kts | 13° |
| 2026-05-06 18:26 | 59.28213 | 11.37689 | 16775 ft | 332 kts | 13° |
| 2026-05-06 18:26 | 59.30374 | 11.39072 | 16506 ft | 331 kts | 13° |
| 2026-05-06 18:27 | 59.32561 | 11.40463 | 16243 ft | 330 kts | 13° |
| 2026-05-06 18:27 | 59.34767 | 11.41860 | 15973 ft | 329 kts | 13° |
| 2026-05-06 18:27 | 59.36941 | 11.43236 | 15714 ft | 328 kts | 13° |
| 2026-05-06 18:27 | 59.39079 | 11.44591 | 15473 ft | 327 kts | 13° |
| 2026-05-06 18:28 | 59.41242 | 11.45963 | 15223 ft | 326 kts | 13° |
| 2026-05-06 18:28 | 59.43402 | 11.47331 | 14968 ft | 326 kts | 13° |
| 2026-05-06 18:28 | 59.45586 | 11.48709 | 14708 ft | 325 kts | 13° |
| 2026-05-06 18:28 | 59.47709 | 11.50047 | 14464 ft | 325 kts | 13° |
| 2026-05-06 18:29 | 59.49860 | 11.51403 | 14213 ft | 324 kts | 13° |
| 2026-05-06 18:29 | 59.52003 | 11.52758 | 13964 ft | 322 kts | 13° |
| 2026-05-06 18:29 | 59.54120 | 11.54100 | 13709 ft | 318 kts | 13° |
| 2026-05-06 18:29 | 59.56215 | 11.55430 | 13429 ft | 314 kts | 13° |
| 2026-05-06 18:30 | 59.58283 | 11.56744 | 13147 ft | 311 kts | 13° |
| 2026-05-06 18:30 | 59.60336 | 11.58049 | 12877 ft | 309 kts | 13° |
| 2026-05-06 18:30 | 59.62380 | 11.59350 | 12606 ft | 307 kts | 14° |
| 2026-05-06 18:30 | 59.64408 | 11.60642 | 12337 ft | 306 kts | 14° |
| 2026-05-06 18:31 | 59.66430 | 11.61932 | 12096 ft | 305 kts | 14° |
| 2026-05-06 18:31 | 59.68447 | 11.63220 | 11823 ft | 304 kts | 14° |
| 2026-05-06 18:31 | 59.70457 | 11.64506 | 11571 ft | 303 kts | 14° |
| 2026-05-06 18:31 | 59.72459 | 11.65788 | 11311 ft | 303 kts | 15° |
| 2026-05-06 18:32 | 59.74461 | 11.67072 | 11047 ft | 302 kts | 15° |
| 2026-05-06 18:32 | 59.76458 | 11.68355 | 10798 ft | 302 kts | 15° |
| 2026-05-06 18:32 | 59.78458 | 11.69642 | 10548 ft | 302 kts | 15° |
| 2026-05-06 18:32 | 59.80450 | 11.70925 | 10292 ft | 301 kts | 15° |
| 2026-05-06 18:33 | 59.82446 | 11.72213 | 10039 ft | 301 kts | 16° |
| 2026-05-06 18:33 | 59.84436 | 11.73498 | 9798 ft | 301 kts | 16° |
| 2026-05-06 18:33 | 59.86427 | 11.74785 | 9519 ft | 301 kts | 16° |
| 2026-05-06 18:33 | 59.88413 | 11.76070 | 9240 ft | 300 kts | 16° |
| 2026-05-06 18:34 | 59.90386 | 11.77350 | 8999 ft | 296 kts | 16° |
| 2026-05-06 18:34 | 59.92327 | 11.78610 | 8922 ft | 291 kts | 16° |
| 2026-05-06 18:34 | 59.94233 | 11.79850 | 8939 ft | 286 kts | 17° |
| 2026-05-06 18:34 | 59.96124 | 11.81083 | 8938 ft | 286 kts | 17° |
| 2026-05-06 18:35 | 59.98029 | 11.82326 | 8926 ft | 290 kts | 17° |
| 2026-05-06 18:35 | 59.99950 | 11.83582 | 8923 ft | 290 kts | 17° |
| 2026-05-06 18:35 | 60.01866 | 11.84837 | 8923 ft | 289 kts | 17° |
| 2026-05-06 18:35 | 60.03775 | 11.86090 | 8923 ft | 288 kts | 17° |
| 2026-05-06 18:36 | 60.05679 | 11.87339 | 8916 ft | 287 kts | 17° |
| 2026-05-06 18:36 | 60.07576 | 11.88585 | 8926 ft | 287 kts | 17° |
| 2026-05-06 18:36 | 60.09518 | 11.89282 | 8906 ft | 283 kts | 351° |
| 2026-05-06 18:36 | 60.11296 | 11.87894 | 8931 ft | 274 kts | 319° |
| 2026-05-06 18:37 | 60.12770 | 11.85454 | 8940 ft | 276 kts | 319° |
| 2026-05-06 18:37 | 60.14289 | 11.83071 | 8940 ft | 278 kts | 320° |
| 2026-05-06 18:37 | 60.15828 | 11.80696 | 8928 ft | 280 kts | 320° |
| 2026-05-06 18:37 | 60.17351 | 11.78363 | 8852 ft | 269 kts | 320° |
| 2026-05-06 18:38 | 60.18819 | 11.76121 | 8554 ft | 261 kts | 320° |
| 2026-05-06 18:38 | 60.20239 | 11.73951 | 8282 ft | 253 kts | 320° |
| 2026-05-06 18:38 | 60.21621 | 11.71840 | 8008 ft | 247 kts | 320° |
| 2026-05-06 18:38 | 60.22988 | 11.69751 | 7743 ft | 246 kts | 320° |
| 2026-05-06 18:39 | 60.24344 | 11.67675 | 7495 ft | 244 kts | 321° |
| 2026-05-06 18:39 | 60.25695 | 11.65606 | 7236 ft | 243 kts | 321° |
| 2026-05-06 18:39 | 60.27038 | 11.63549 | 6979 ft | 242 kts | 321° |
| 2026-05-06 18:40 | 60.29703 | 11.59460 | 6462 ft | 240 kts | 321° |
| 2026-05-06 18:40 | 60.31022 | 11.57432 | 6210 ft | 238 kts | 321° |
| 2026-05-06 18:40 | 60.32328 | 11.55424 | 6054 ft | 233 kts | 321° |
| 2026-05-06 18:40 | 60.33615 | 11.53444 | 6010 ft | 232 kts | 321° |
| 2026-05-06 18:41 | 60.34888 | 11.51483 | 6020 ft | 229 kts | 321° |
| 2026-05-06 18:41 | 60.36156 | 11.49528 | 6010 ft | 229 kts | 321° |
| 2026-05-06 18:41 | 60.37431 | 11.47558 | 5994 ft | 232 kts | 321° |
| 2026-05-06 18:41 | 60.38717 | 11.45571 | 5974 ft | 234 kts | 321° |
| 2026-05-06 18:42 | 60.40010 | 11.43570 | 5883 ft | 234 kts | 321° |
| 2026-05-06 18:42 | 60.41224 | 11.41399 | 5773 ft | 233 kts | 303° |
| 2026-05-06 18:42 | 60.41750 | 11.38366 | 5573 ft | 230 kts | 272° |
| 2026-05-06 18:42 | 60.41572 | 11.35183 | 5348 ft | 227 kts | 257° |
| 2026-05-06 18:43 | 60.41187 | 11.32131 | 5135 ft | 220 kts | 255° |
| 2026-05-06 18:43 | 60.40803 | 11.29193 | 5047 ft | 215 kts | 256° |
| 2026-05-06 18:43 | 60.40409 | 11.26275 | 4932 ft | 215 kts | 251° |
| 2026-05-06 18:43 | 60.39517 | 11.23902 | 4727 ft | 216 kts | 213° |
| 2026-05-06 18:44 | 60.38122 | 11.22735 | 4466 ft | 220 kts | 200° |
| 2026-05-06 18:44 | 60.36667 | 11.21814 | 4154 ft | 216 kts | 198° |
| 2026-05-06 18:44 | 60.35259 | 11.20996 | 3850 ft | 205 kts | 198° |
| 2026-05-06 18:44 | 60.33924 | 11.20229 | 3584 ft | 195 kts | 198° |
| 2026-05-06 18:45 | 60.32645 | 11.19492 | 3317 ft | 187 kts | 198° |
| 2026-05-06 18:45 | 60.31405 | 11.18774 | 3070 ft | 185 kts | 198° |
| 2026-05-06 18:45 | 60.30170 | 11.18060 | 2823 ft | 183 kts | 198° |
| 2026-05-06 18:45 | 60.29373 | 11.17600 | 2650 ft | 175 kts | 198° |
| 2026-05-06 18:46 | 60.27853 | 11.16722 | 2330 ft | 165 kts | 198° |
| 2026-05-06 18:46 | 60.26767 | 11.16094 | 2136 ft | 160 kts | 198° |
| 2026-05-06 18:46 | 60.25718 | 11.15487 | 1897 ft | 153 kts | 199° |
| 2026-05-06 18:46 | 60.24707 | 11.14901 | 1686 ft | 150 kts | 198° |
| 2026-05-06 18:47 | 60.23696 | 11.14316 | 1458 ft | 153 kts | 197° |
| 2026-05-06 18:47 | 60.22666 | 11.13721 | 1253 ft | 155 kts | 198° |
| 2026-05-06 18:47 | 60.21627 | 11.13121 | 1053 ft | 156 kts | 198° |
| 2026-05-06 18:47 | 60.20588 | 11.12519 | 851 ft | 156 kts | 198° |
| 2026-05-06 18:48 | 60.19566 | 11.11930 | 691 ft | 148 kts | 198° |
| 2026-05-06 18:48 | 60.18788 | 11.11479 | 683 ft | 88 kts | 197° |
| 2026-05-06 18:48 | 60.18442 | 11.11112 | 682 ft | 32 kts | 252° |
| 2026-05-06 18:48 | 60.18448 | 11.10971 | 680 ft | 0 kts | 287° |
| 2026-05-06 18:49 | 60.18449 | 11.10967 | 680 ft | 2 kts | 286° |
| 2026-05-06 18:49 | 60.18462 | 11.10873 | 680 ft | 12 kts | 285° |
| 2026-05-06 18:50 | 60.18520 | 11.10764 | 681 ft | 13 kts | 8° |
| 2026-05-06 18:50 | 60.18606 | 11.10809 | 678 ft | 13 kts | 17° |
| 2026-05-06 18:50 | 60.18690 | 11.10859 | 681 ft | 12 kts | 16° |
| 2026-05-06 18:50 | 60.18771 | 11.10907 | 682 ft | 12 kts | 16° |
| 2026-05-06 18:51 | 60.18851 | 11.10952 | 682 ft | 12 kts | 15° |
| 2026-05-06 18:51 | 60.18928 | 11.10994 | 682 ft | 11 kts | 15° |
| 2026-05-06 18:51 | 60.19004 | 11.11038 | 682 ft | 11 kts | 16° |
| 2026-05-06 18:51 | 60.19077 | 11.11081 | 682 ft | 11 kts | 16° |
| 2026-05-06 18:52 | 60.19148 | 11.11121 | 683 ft | 10 kts | 15° |
| 2026-05-06 18:52 | 60.19217 | 11.11161 | 682 ft | 10 kts | 16° |
| 2026-05-06 18:52 | 60.19284 | 11.11200 | 684 ft | 10 kts | 16° |
| 2026-05-06 18:52 | 60.19349 | 11.11239 | 681 ft | 10 kts | 16° |
| 2026-05-06 18:53 | 60.19413 | 11.11276 | 682 ft | 10 kts | 16° |
| 2026-05-06 18:53 | 60.19479 | 11.11274 | 677 ft | 10 kts | 319° |
| 2026-05-06 18:53 | 60.19507 | 11.11143 | 680 ft | 10 kts | 284° |
| 2026-05-06 18:53 | 60.19526 | 11.11005 | 680 ft | 10 kts | 286° |
| 2026-05-06 18:54 | 60.19545 | 11.10872 | 682 ft | 10 kts | 286° |
| 2026-05-06 18:54 | 60.19564 | 11.10743 | 682 ft | 10 kts | 287° |
| 2026-05-06 18:54 | 60.19582 | 11.10616 | 679 ft | 9 kts | 286° |
| 2026-05-06 18:54 | 60.19599 | 11.10493 | 682 ft | 9 kts | 279° |
| 2026-05-06 18:55 | 60.19578 | 11.10380 | 679 ft | 9 kts | 255° |
| 2026-05-06 18:55 | 60.19589 | 11.10270 | 684 ft | 7 kts | 285° |
| 2026-05-06 18:55 | 60.19600 | 11.10194 | 679 ft | 4 kts | 286° |
| 2026-05-06 18:55 | 60.19602 | 11.10181 | 682 ft | 0 kts | 286° |